Time;durP1;ratioP1;P1;durP2;ratioP2;P2;SDS_P1;SDS_P2;PMS_P1;PMS_P2;Temp;Humidity;BMP_temperature;BMP_pressure;BME280_temperature;BME280_humidity;BME280_pressure;Samples;Min_cycle;Max_cycle;Signal;HPM_P1;HPM_P2
2023/12/11 00:02:05;;;;;;;0.80;0.80;;;;;8.00;94984.00;;;;5077367;28;20289;-62
2023/12/11 00:04:32;;;;;;;0.50;0.50;;;;;8.00;94986.00;;;;5077567;28;20191;-62
2023/12/11 00:06:59;;;;;;;0.60;0.60;;;;;8.00;95008.00;;;;5077833;28;20195;-62
2023/12/11 00:09:27;;;;;;;0.50;0.50;;;;;7.90;94998.00;;;;5077603;28;20200;-62
2023/12/11 00:11:56;;;;;;;0.53;0.53;;;;;8.00;95001.00;;;;5078654;28;20657;-63
2023/12/11 00:14:24;;;;;;;0.77;0.60;;;;;7.90;95001.00;;;;5077738;28;20616;-63
2023/12/11 00:16:52;;;;;;;0.60;0.60;;;;;7.90;95003.00;;;;5077802;28;20219;-63
2023/12/11 00:19:19;;;;;;;0.73;0.73;;;;;7.90;94994.00;;;;5076400;28;20196;-62
2023/12/11 00:21:47;;;;;;;0.50;0.50;;;;;8.00;94988.00;;;;5077749;28;20717;-63
2023/12/11 00:24:17;;;;;;;0.50;0.50;;;;;7.90;95007.00;;;;5077529;28;20195;-63
2023/12/11 00:26:45;;;;;;;0.50;0.50;;;;;7.90;95016.00;;;;5077510;28;20180;-63
2023/12/11 00:29:14;;;;;;;0.60;0.60;;;;;7.70;95022.00;;;;5076243;28;20224;-62
2023/12/11 00:31:41;;;;;;;0.60;0.60;;;;;7.70;95019.00;;;;5077236;28;20235;-62
2023/12/11 00:34:09;;;;;;;0.50;0.50;;;;;7.80;95011.00;;;;5077440;28;20219;-63
2023/12/11 00:36:36;;;;;;;1.33;1.23;;;;;7.80;95024.00;;;;5078099;28;20223;-63
2023/12/11 00:39:04;;;;;;;0.50;0.50;;;;;7.70;95028.00;;;;5077939;28;20202;-63
2023/12/11 00:41:31;;;;;;;0.60;0.60;;;;;7.60;95023.00;;;;5077014;28;20212;-62
2023/12/11 00:43:59;;;;;;;0.60;0.60;;;;;7.50;95036.00;;;;5076314;28;20195;-62
2023/12/11 00:46:28;;;;;;;0.80;0.80;;;;;7.50;95033.00;;;;5076776;28;20282;-62
2023/12/11 00:48:55;;;;;;;0.50;0.50;;;;;7.50;95026.00;;;;5075072;28;20192;-62
2023/12/11 00:51:23;;;;;;;0.60;0.60;;;;;7.70;95019.00;;;;5076402;28;20671;-62
2023/12/11 00:53:50;;;;;;;0.50;0.50;;;;;7.70;95016.00;;;;5075784;28;20191;-62
2023/12/11 00:56:18;;;;;;;0.70;0.70;;;;;7.70;95018.00;;;;5076102;28;20205;-62
2023/12/11 00:58:45;;;;;;;0.70;0.70;;;;;7.70;95033.00;;;;5075894;28;20218;-62
2023/12/11 01:01:13;;;;;;;0.60;0.60;;;;;7.70;95033.00;;;;5075752;28;20194;-62
2023/12/11 01:03:41;;;;;;;0.50;0.50;;;;;7.70;95032.00;;;;5075327;28;20245;-62
2023/12/11 01:06:12;;;;;;;0.60;0.60;;;;;7.50;95027.00;;;;5075652;28;20207;-62
2023/12/11 01:08:39;;;;;;;0.60;0.60;;;;;7.60;95035.00;;;;5075997;28;20179;-62
2023/12/11 01:11:07;;;;;;;0.57;0.57;;;;;7.80;95039.00;;;;5075589;28;20199;-62
2023/12/11 01:13:37;;;;;;;0.60;0.60;;;;;7.90;95039.00;;;;5076146;28;20289;-62
2023/12/11 01:16:05;;;;;;;0.60;0.60;;;;;8.00;95032.00;;;;5076022;28;20176;-63
2023/12/11 01:18:33;;;;;;;0.50;0.50;;;;;8.20;95019.00;;;;5074617;28;20226;-63
2023/12/11 01:21:02;;;;;;;0.60;0.60;;;;;8.20;95015.00;;;;5076521;28;20202;-63
2023/12/11 01:23:30;;;;;;;0.50;0.50;;;;;8.20;95036.00;;;;5076369;28;20208;-63
2023/12/11 01:25:57;;;;;;;0.70;0.70;;;;;8.40;95009.00;;;;5075928;28;20187;-63
2023/12/11 01:28:25;;;;;;;0.50;0.50;;;;;8.50;95024.00;;;;5076048;28;20183;-63
2023/12/11 01:30:52;;;;;;;0.60;0.60;;;;;8.40;95024.00;;;;5074623;28;20198;-63
2023/12/11 01:33:20;;;;;;;2.20;0.80;;;;;8.40;95016.00;;;;5075575;28;20215;-63
2023/12/11 01:35:47;;;;;;;0.60;0.60;;;;;8.50;95015.00;;;;5076238;28;20538;-63
2023/12/11 01:38:16;;;;;;;0.50;0.50;;;;;8.40;95011.00;;;;5075575;28;20223;-63
2023/12/11 01:40:44;;;;;;;0.60;0.60;;;;;8.40;95003.00;;;;5076234;28;20197;-63
2023/12/11 01:43:15;;;;;;;0.60;0.60;;;;;8.30;94993.00;;;;5075641;28;20684;-62
2023/12/11 01:45:43;;;;;;;0.53;0.53;;;;;8.40;95007.00;;;;5076113;28;20192;-62
2023/12/11 01:48:12;;;;;;;0.83;0.83;;;;;8.40;95013.00;;;;5075909;28;20187;-62
2023/12/11 01:50:41;;;;;;;0.50;0.50;;;;;8.50;95014.00;;;;5075713;28;20282;-62
2023/12/11 01:53:10;;;;;;;0.50;0.50;;;;;8.50;95009.00;;;;5075513;28;20307;-62
2023/12/11 01:55:38;;;;;;;0.50;0.50;;;;;8.50;95004.00;;;;5075218;28;20274;-63
2023/12/11 01:58:07;;;;;;;0.60;0.60;;;;;8.60;95023.00;;;;5075303;28;20219;-63
2023/12/11 02:00:35;;;;;;;0.57;0.57;;;;;8.60;95031.00;;;;5075002;28;20198;-62
2023/12/11 02:03:02;;;;;;;0.50;0.50;;;;;8.50;95019.00;;;;5075683;28;20761;-62
2023/12/11 02:05:30;;;;;;;0.60;0.60;;;;;8.60;95037.00;;;;5076050;28;20245;-62
2023/12/11 02:07:59;;;;;;;0.60;0.60;;;;;8.50;95024.00;;;;5075651;28;20184;-63
2023/12/11 02:10:27;;;;;;;0.50;0.50;;;;;8.50;95003.00;;;;5076055;28;20192;-63
2023/12/11 02:12:56;;;;;;;0.60;0.60;;;;;8.50;94995.00;;;;5075090;28;20211;-63
2023/12/11 02:15:43;;;;;;;0.60;0.60;;;;;8.50;95016.00;;;;5075426;28;20196;-63
2023/12/11 02:18:13;;;;;;;0.70;0.70;;;;;8.40;95013.00;;;;5075696;28;20315;-63
2023/12/11 02:20:42;;;;;;;0.60;0.60;;;;;8.40;95013.00;;;;5074864;28;20663;-62
2023/12/11 02:23:15;;;;;;;0.50;0.50;;;;;8.30;95010.00;;;;5074622;28;20211;-62
2023/12/11 02:25:44;;;;;;;0.50;0.50;;;;;8.20;95014.00;;;;5074428;28;20701;-62
2023/12/11 02:28:13;;;;;;;0.50;0.50;;;;;8.20;95007.00;;;;5075135;28;20195;-62
2023/12/11 02:30:50;;;;;;;0.50;0.50;;;;;8.20;95004.00;;;;5075087;28;20191;-62
2023/12/11 02:33:18;;;;;;;0.50;0.50;;;;;8.40;94999.00;;;;5074732;28;20210;-62
2023/12/11 02:35:46;;;;;;;0.60;0.60;;;;;8.30;95009.00;;;;5074424;28;20195;-62
2023/12/11 02:38:13;;;;;;;0.47;0.47;;;;;8.10;94998.00;;;;5074635;28;20223;-63
2023/12/11 02:40:41;;;;;;;0.50;0.50;;;;;8.20;94999.00;;;;5075427;28;20223;-63
2023/12/11 02:43:08;;;;;;;4.13;0.70;;;;;8.50;95005.00;;;;5075618;28;20222;-63
2023/12/11 02:45:37;;;;;;;0.60;0.60;;;;;8.60;95008.00;;;;5075866;28;20643;-63
2023/12/11 02:48:05;;;;;;;0.50;0.50;;;;;8.60;94997.00;;;;5075232;28;20603;-63
2023/12/11 02:50:33;;;;;;;0.50;0.50;;;;;8.60;94994.00;;;;5076310;28;20531;-63
2023/12/11 02:53:01;;;;;;;0.60;0.60;;;;;8.50;95001.00;;;;5075484;28;20215;-63
2023/12/11 02:55:29;;;;;;;0.57;0.57;;;;;8.40;94991.00;;;;5075516;28;20229;-63
2023/12/11 02:57:58;;;;;;;0.60;0.60;;;;;8.50;94977.00;;;;5073857;28;20586;-63
2023/12/11 03:00:26;;;;;;;0.60;0.60;;;;;8.60;94990.00;;;;5075403;28;20202;-63
2023/12/11 03:02:55;;;;;;;0.43;0.43;;;;;8.50;94981.00;;;;5074937;28;20622;-63
2023/12/11 03:05:23;;;;;;;0.60;0.60;;;;;8.80;94973.00;;;;5074614;28;20192;-63
2023/12/11 03:07:51;;;;;;;0.50;0.50;;;;;8.70;94970.00;;;;5078717;28;20176;-63
2023/12/11 03:10:18;;;;;;;0.50;0.50;;;;;8.60;94987.00;;;;5078356;28;20191;-61
2023/12/11 03:12:46;;;;;;;0.57;0.57;;;;;8.50;94993.00;;;;5077140;28;20576;-62
2023/12/11 03:15:13;;;;;;;0.60;0.60;;;;;8.40;94997.00;;;;5078417;28;20192;-63
2023/12/11 03:17:41;;;;;;;0.50;0.50;;;;;8.50;94986.00;;;;5078333;28;20306;-62
2023/12/11 03:20:12;;;;;;;0.60;0.60;;;;;8.40;95000.00;;;;5078500;28;20191;-62
2023/12/11 03:22:40;;;;;;;0.60;0.60;;;;;8.50;94982.00;;;;5077951;28;20214;-62
2023/12/11 03:25:08;;;;;;;0.50;0.50;;;;;8.50;94982.00;;;;5077981;28;20553;-62
2023/12/11 03:27:35;;;;;;;0.70;0.70;;;;;8.50;94978.00;;;;5078112;28;20194;-63
2023/12/11 03:30:03;;;;;;;0.50;0.50;;;;;8.50;94974.00;;;;5078085;28;20196;-62
2023/12/11 03:32:31;;;;;;;0.50;0.50;;;;;8.80;94967.00;;;;5077900;28;20556;-63
2023/12/11 03:34:58;;;;;;;0.40;0.40;;;;;8.70;94977.00;;;;5077846;28;20195;-63
2023/12/11 03:37:27;;;;;;;0.60;0.60;;;;;8.90;94976.00;;;;5076356;28;20640;-62
2023/12/11 03:39:54;;;;;;;0.60;0.60;;;;;8.90;94974.00;;;;5077867;28;20197;-62
2023/12/11 03:42:22;;;;;;;0.60;0.60;;;;;8.90;94973.00;;;;5077209;28;20218;-62
2023/12/11 03:44:49;;;;;;;0.60;0.60;;;;;8.90;94967.00;;;;5075787;28;20245;-62
2023/12/11 03:47:17;;;;;;;0.50;0.50;;;;;8.80;94958.00;;;;5077321;28;20191;-62
2023/12/11 03:49:45;;;;;;;0.60;0.60;;;;;8.70;94949.00;;;;5077710;28;20192;-63
2023/12/11 03:52:12;;;;;;;0.50;0.50;;;;;8.90;94946.00;;;;5077798;28;20207;-62
2023/12/11 03:54:41;;;;;;;0.50;0.50;;;;;9.00;94955.00;;;;5077440;28;20660;-62
2023/12/11 03:57:08;;;;;;;0.90;0.90;;;;;9.10;94945.00;;;;5077943;28;20196;-62
2023/12/11 03:59:36;;;;;;;1.57;1.47;;;;;9.00;94929.00;;;;5077892;28;20211;-62
2023/12/11 04:02:05;;;;;;;0.50;0.50;;;;;9.00;94939.00;;;;5077079;28;20699;-63
2023/12/11 04:04:34;;;;;;;0.57;0.57;;;;;9.10;94931.00;;;;5078214;28;20241;-62
2023/12/11 04:07:01;;;;;;;0.50;0.50;;;;;9.10;94939.00;;;;5077467;28;20207;-63
2023/12/11 04:09:29;;;;;;;0.50;0.50;;;;;9.20;94937.00;;;;5076970;28;20287;-63
2023/12/11 04:11:58;;;;;;;0.70;0.70;;;;;9.20;94939.00;;;;5076900;28;20215;-63
2023/12/11 04:14:25;;;;;;;0.50;0.50;;;;;8.90;94961.00;;;;5077033;28;20202;-62
2023/12/11 04:16:53;;;;;;;0.50;0.50;;;;;9.00;94969.00;;;;5076800;28;20234;-62
2023/12/11 04:19:20;;;;;;;0.53;0.53;;;;;9.00;94971.00;;;;5077218;28;20215;-62
2023/12/11 04:21:48;;;;;;;0.50;0.50;;;;;9.00;94967.00;;;;5076602;28;20227;-62
2023/12/11 04:24:15;;;;;;;0.67;0.67;;;;;9.10;94976.00;;;;5077239;28;20195;-62
2023/12/11 04:26:43;;;;;;;0.50;0.50;;;;;9.10;94972.00;;;;5076524;28;20742;-62
2023/12/11 04:29:11;;;;;;;0.60;0.60;;;;;9.00;94968.00;;;;5076770;28;20538;-62
2023/12/11 04:31:39;;;;;;;0.60;0.60;;;;;9.00;94963.00;;;;5076782;28;20217;-63
2023/12/11 04:34:06;;;;;;;0.70;0.70;;;;;8.80;94968.00;;;;5076225;28;20192;-62
2023/12/11 04:36:34;;;;;;;0.60;0.60;;;;;8.90;94974.00;;;;5075092;28;20199;-62
2023/12/11 04:39:02;;;;;;;0.50;0.50;;;;;8.90;94969.00;;;;5076266;28;20705;-62
2023/12/11 04:41:32;;;;;;;0.60;0.60;;;;;9.00;94977.00;;;;5076090;28;20215;-62
2023/12/11 04:43:59;;;;;;;0.50;0.50;;;;;8.80;94973.00;;;;5076191;28;20188;-62
2023/12/11 04:46:28;;;;;;;0.50;0.50;;;;;8.90;94961.00;;;;5076164;28;20188;-62
2023/12/11 04:48:56;;;;;;;0.60;0.60;;;;;8.90;94951.00;;;;5076291;28;20194;-62
2023/12/11 04:51:23;;;;;;;0.70;0.70;;;;;8.90;94924.00;;;;5076565;28;20187;-62
2023/12/11 04:53:50;;;;;;;0.73;0.73;;;;;8.80;94939.00;;;;5074632;28;20204;-62
2023/12/11 04:56:18;;;;;;;0.53;0.53;;;;;8.80;94945.00;;;;5076543;28;20702;-62
2023/12/11 04:58:45;;;;;;;0.57;0.57;;;;;8.80;94950.00;;;;5076384;28;20698;-62
2023/12/11 05:01:13;;;;;;;0.57;0.57;;;;;8.70;94947.00;;;;5076768;28;20655;-62
2023/12/11 05:03:42;;;;;;;0.60;0.60;;;;;8.60;94958.00;;;;5075898;28;20673;-62
2023/12/11 05:06:10;;;;;;;0.60;0.60;;;;;8.50;94953.00;;;;5075620;28;20199;-62
2023/12/11 05:08:37;;;;;;;0.50;0.50;;;;;8.40;94938.00;;;;5076540;28;20666;-63
2023/12/11 05:11:05;;;;;;;0.50;0.50;;;;;8.40;94932.00;;;;5076028;28;20274;-62
2023/12/11 05:13:32;;;;;;;0.77;0.77;;;;;8.60;94947.00;;;;5076079;28;20215;-62
2023/12/11 05:16:01;;;;;;;0.70;0.70;;;;;8.70;94953.00;;;;5076251;28;20188;-62
2023/12/11 05:18:28;;;;;;;0.90;0.90;;;;;8.70;94952.00;;;;5075898;28;20714;-62
2023/12/11 05:20:57;;;;;;;1.03;1.03;;;;;8.60;94956.00;;;;5076629;28;20187;-62
2023/12/11 05:23:25;;;;;;;0.87;0.87;;;;;8.80;94916.00;;;;5074755;28;20226;-62
2023/12/11 05:25:53;;;;;;;7.10;1.70;;;;;8.70;94920.00;;;;5075785;28;20207;-62
2023/12/11 05:28:22;;;;;;;1.50;1.30;;;;;8.50;94912.00;;;;5075383;28;20194;-62
2023/12/11 05:30:50;;;;;;;0.90;0.90;;;;;8.70;94903.00;;;;5075684;28;20313;-62
2023/12/11 05:33:17;;;;;;;0.50;0.50;;;;;8.80;94901.00;;;;5073799;28;20251;-62
2023/12/11 05:35:45;;;;;;;0.60;0.60;;;;;8.90;94895.00;;;;5074033;28;20201;-62
2023/12/11 05:38:14;;;;;;;1.57;1.17;;;;;8.80;94894.00;;;;5075233;28;20198;-62
2023/12/11 05:40:41;;;;;;;1.47;0.90;;;;;8.90;94892.00;;;;5074990;28;20654;-62
2023/12/11 05:43:09;;;;;;;0.60;0.60;;;;;8.80;94914.00;;;;5074875;28;20258;-62
2023/12/11 05:45:36;;;;;;;0.63;0.63;;;;;8.90;94901.00;;;;5075198;28;20563;-62
2023/12/11 05:48:05;;;;;;;0.50;0.50;;;;;8.80;94919.00;;;;5075469;28;20188;-62
2023/12/11 05:50:32;;;;;;;0.50;0.50;;;;;8.80;94907.00;;;;5075582;28;20278;-62
2023/12/11 05:53:00;;;;;;;0.60;0.60;;;;;8.80;94916.00;;;;5074870;28;20207;-62
2023/12/11 05:55:29;;;;;;;0.80;0.80;;;;;8.60;94926.00;;;;5073360;28;20202;-62
2023/12/11 05:57:56;;;;;;;0.57;0.57;;;;;8.70;94941.00;;;;5075008;28;20187;-62
2023/12/11 06:00:24;;;;;;;0.50;0.50;;;;;8.80;94937.00;;;;5074563;28;20225;-62
2023/12/11 06:02:51;;;;;;;0.60;0.60;;;;;8.60;94936.00;;;;5074563;28;20204;-62
2023/12/11 06:05:19;;;;;;;0.50;0.50;;;;;8.70;94917.00;;;;5074829;28;20191;-62
2023/12/11 06:07:46;;;;;;;0.60;0.60;;;;;8.70;94906.00;;;;5075410;28;20230;-62
2023/12/11 06:10:13;;;;;;;1.70;0.73;;;;;8.60;94899.00;;;;5075186;28;20215;-62
2023/12/11 06:12:42;;;;;;;0.50;0.50;;;;;8.60;94894.00;;;;5074852;28;20207;-62
2023/12/11 06:15:10;;;;;;;0.50;0.50;;;;;8.60;94898.00;;;;5075067;28;20214;-62
2023/12/11 06:17:38;;;;;;;2.73;1.20;;;;;8.50;94914.00;;;;5074914;28;20213;-62
2023/12/11 06:20:06;;;;;;;0.63;0.63;;;;;8.50;94931.00;;;;5074519;28;20581;-62
2023/12/11 06:22:33;;;;;;;0.53;0.53;;;;;8.40;94925.00;;;;5074831;28;20216;-62
2023/12/11 06:25:01;;;;;;;0.60;0.60;;;;;8.50;94919.00;;;;5075036;28;20204;-62
2023/12/11 06:27:29;;;;;;;0.50;0.50;;;;;8.70;94932.00;;;;5074733;28;20199;-62
2023/12/11 06:29:57;;;;;;;1.07;0.93;;;;;8.50;94928.00;;;;5074713;28;20637;-62
2023/12/11 06:32:25;;;;;;;0.73;0.73;;;;;8.40;94925.00;;;;5075141;28;20214;-61
2023/12/11 06:34:52;;;;;;;0.87;0.87;;;;;8.50;94910.00;;;;5074594;28;20200;-62
2023/12/11 06:37:20;;;;;;;0.53;0.53;;;;;8.40;94891.00;;;;5074459;28;20654;-62
2023/12/11 06:39:48;;;;;;;0.90;0.90;;;;;8.30;94874.00;;;;5075591;28;20215;-62
2023/12/11 06:42:15;;;;;;;0.60;0.60;;;;;8.30;94855.00;;;;5078706;28;20556;-62
2023/12/11 06:44:43;;;;;;;0.50;0.50;;;;;8.40;94873.00;;;;5079412;28;20214;-62
2023/12/11 06:47:13;;;;;;;0.50;0.50;;;;;8.30;94881.00;;;;5079802;28;20192;-62
2023/12/11 06:49:42;;;;;;;4.27;0.90;;;;;8.50;94883.00;;;;5079003;28;20226;-62
2023/12/11 06:52:09;;;;;;;0.60;0.60;;;;;8.30;94884.00;;;;5078620;28;20219;-62
2023/12/11 06:54:37;;;;;;;0.77;0.77;;;;;8.30;94892.00;;;;5078684;28;20195;-62
2023/12/11 06:57:04;;;;;;;0.63;0.63;;;;;8.30;94892.00;;;;5079046;28;20198;-62
2023/12/11 06:59:32;;;;;;;0.60;0.60;;;;;8.20;94887.00;;;;5078234;28;20216;-62
2023/12/11 07:01:59;;;;;;;0.50;0.50;;;;;8.20;94882.00;;;;5078323;28;20224;-62
2023/12/11 07:04:28;;;;;;;0.60;0.60;;;;;8.30;94882.00;;;;5078748;28;20674;-62
2023/12/11 07:06:56;;;;;;;0.50;0.50;;;;;8.30;94885.00;;;;5078228;28;20203;-62
2023/12/11 07:09:24;;;;;;;0.53;0.53;;;;;8.30;94887.00;;;;5078551;28;20188;-62
2023/12/11 07:11:54;;;;;;;0.60;0.60;;;;;8.50;94909.00;;;;5078836;28;20207;-62
2023/12/11 07:14:23;;;;;;;0.70;0.70;;;;;8.40;94894.00;;;;5078527;28;20226;-62
2023/12/11 07:16:50;;;;;;;0.50;0.50;;;;;8.40;94890.00;;;;5078703;28;20215;-63
2023/12/11 07:19:19;;;;;;;0.50;0.50;;;;;8.30;94883.00;;;;5078324;28;20226;-63
2023/12/11 07:21:48;;;;;;;0.67;0.67;;;;;8.30;94884.00;;;;5078642;28;20215;-62
2023/12/11 07:24:15;;;;;;;0.60;0.60;;;;;8.30;94882.00;;;;5079250;28;20196;-62
2023/12/11 07:26:43;;;;;;;0.60;0.60;;;;;8.30;94887.00;;;;5078295;28;20217;-62
2023/12/11 07:29:10;;;;;;;0.60;0.60;;;;;8.30;94898.00;;;;5078345;28;20184;-63
2023/12/11 07:31:39;;;;;;;0.60;0.60;;;;;8.30;94890.00;;;;5078025;28;20219;-62
2023/12/11 07:34:07;;;;;;;0.60;0.60;;;;;8.20;94884.00;;;;5078881;28;20218;-62
2023/12/11 07:36:34;;;;;;;0.50;0.50;;;;;8.20;94878.00;;;;5078939;28;20201;-62
2023/12/11 07:39:03;;;;;;;0.50;0.50;;;;;8.20;94875.00;;;;5079021;28;20219;-63
2023/12/11 07:41:33;;;;;;;0.83;0.83;;;;;8.20;94877.00;;;;5079016;28;20577;-62
2023/12/11 07:44:00;;;;;;;0.60;0.60;;;;;8.20;94877.00;;;;5078236;28;20187;-62
2023/12/11 07:46:28;;;;;;;1.67;1.57;;;;;8.10;94889.00;;;;5078368;28;20248;-63
2023/12/11 07:48:55;;;;;;;1.13;1.03;;;;;8.10;94899.00;;;;5078346;28;20198;-62
2023/12/11 07:51:24;;;;;;;1.30;1.20;;;;;8.10;94916.00;;;;5075408;28;20218;-63
2023/12/11 07:53:52;;;;;;;0.70;0.70;;;;;8.10;94925.00;;;;5077148;28;20214;-62
2023/12/11 07:56:22;;;;;;;0.53;0.53;;;;;8.10;94946.00;;;;5078490;28;20609;-62
2023/12/11 07:58:50;;;;;;;0.57;0.57;;;;;8.10;94941.00;;;;5077796;28;20195;-62
2023/12/11 08:01:18;;;;;;;0.60;0.60;;;;;8.10;94941.00;;;;5075423;28;20278;-62
2023/12/11 08:03:48;;;;;;;0.60;0.60;;;;;8.20;94945.00;;;;5074824;28;20282;-66
2023/12/11 08:06:16;;;;;;;0.50;0.50;;;;;8.20;94933.00;;;;5075626;28;20286;-66
2023/12/11 08:08:44;;;;;;;0.70;0.70;;;;;8.30;94924.00;;;;5075373;28;20230;-65
2023/12/11 08:11:18;;;;;;;0.50;0.50;;;;;8.30;94929.00;;;;5075646;28;20195;-62
2023/12/11 08:13:47;;;;;;;0.60;0.60;;;;;8.60;94927.00;;;;5071223;28;21066;-61
2023/12/11 08:16:16;;;;;;;0.60;0.60;;;;;8.50;94921.00;;;;5073503;28;20203;-61
2023/12/11 08:18:44;;;;;;;0.60;0.60;;;;;8.50;94910.00;;;;5073170;28;20191;-61
2023/12/11 08:21:12;;;;;;;0.67;0.67;;;;;8.50;94902.00;;;;5073412;28;20569;-61
2023/12/11 08:23:40;;;;;;;0.80;0.80;;;;;8.50;94899.00;;;;5073840;28;20702;-61
2023/12/11 08:26:11;;;;;;;0.90;0.90;;;;;8.70;94904.00;;;;5073016;28;20195;-61
2023/12/11 08:28:39;;;;;;;0.50;0.50;;;;;8.80;94896.00;;;;5073689;28;20274;-62
2023/12/11 08:31:08;;;;;;;1.17;1.17;;;;;8.80;94895.00;;;;5073704;28;20187;-62
2023/12/11 08:33:36;;;;;;;0.50;0.50;;;;;8.80;94890.00;;;;5072843;28;20282;-62
2023/12/11 08:36:04;;;;;;;0.60;0.60;;;;;8.90;94886.00;;;;5071710;28;20222;-62
2023/12/11 08:38:32;;;;;;;2.27;0.77;;;;;9.00;94877.00;;;;5072485;28;20203;-62
2023/12/11 08:41:00;;;;;;;0.50;0.50;;;;;9.00;94883.00;;;;5072824;28;20211;-62
2023/12/11 08:43:27;;;;;;;2.33;1.33;;;;;8.80;94888.00;;;;5072333;28;20245;-62
2023/12/11 08:45:54;;;;;;;0.90;0.90;;;;;8.90;94888.00;;;;5072823;28;20195;-62
2023/12/11 08:48:23;;;;;;;0.60;0.60;;;;;9.00;94907.00;;;;5072269;28;20195;-62
2023/12/11 08:50:53;;;;;;;0.70;0.70;;;;;9.10;94927.00;;;;5073064;28;20191;-62
2023/12/11 08:53:20;;;;;;;0.50;0.50;;;;;9.20;94932.00;;;;5072500;28;20219;-62
2023/12/11 08:55:48;;;;;;;0.50;0.50;;;;;9.10;94915.00;;;;5072464;28;20693;-62
2023/12/11 08:58:15;;;;;;;0.50;0.50;;;;;9.20;94922.00;;;;5072604;28;20195;-62
2023/12/11 09:00:44;;;;;;;0.60;0.60;;;;;9.30;94940.00;;;;5072682;28;20302;-62
2023/12/11 09:03:13;;;;;;;0.50;0.50;;;;;9.40;94929.00;;;;5066653;28;20223;-62
2023/12/11 09:05:42;;;;;;;0.50;0.50;;;;;9.40;94942.00;;;;5072443;28;20214;-62
2023/12/11 09:08:10;;;;;;;0.60;0.60;;;;;9.60;94932.00;;;;5067868;28;20191;-62
2023/12/11 09:10:40;;;;;;;0.50;0.50;;;;;9.50;94921.00;;;;5072290;28;20709;-62
2023/12/11 09:13:08;;;;;;;0.60;0.60;;;;;9.40;94908.00;;;;5071682;28;20219;-62
2023/12/11 09:15:36;;;;;;;0.60;0.60;;;;;9.60;94936.00;;;;5072264;28;20200;-62
2023/12/11 09:18:04;;;;;;;0.70;0.70;;;;;9.50;94952.00;;;;5071981;28;20230;-62
2023/12/11 09:20:32;;;;;;;0.57;0.57;;;;;9.50;94954.00;;;;5071964;28;20591;-62
2023/12/11 09:23:01;;;;;;;0.80;0.80;;;;;9.60;94952.00;;;;5072088;28;20216;-61
2023/12/11 09:25:31;;;;;;;0.60;0.60;;;;;9.70;94959.00;;;;5071665;28;20199;-61
2023/12/11 09:27:58;;;;;;;0.60;0.60;;;;;9.80;94947.00;;;;5072614;28;20282;-61
2023/12/11 09:30:26;;;;;;;12.57;1.23;;;;;9.90;94964.00;;;;5071531;28;20295;-61
2023/12/11 09:32:53;;;;;;;0.50;0.50;;;;;10.10;94934.00;;;;5071060;28;20215;-62
2023/12/11 09:35:21;;;;;;;0.50;0.50;;;;;10.10;94930.00;;;;5071277;28;20199;-62
2023/12/11 09:37:48;;;;;;;0.60;0.60;;;;;10.10;94924.00;;;;5072301;28;20222;-62
2023/12/11 09:40:17;;;;;;;24.53;1.43;;;;;10.00;94935.00;;;;5071742;28;20219;-62
2023/12/11 09:42:45;;;;;;;0.53;0.53;;;;;10.10;94936.00;;;;5071990;28;20297;-62
2023/12/11 09:45:16;;;;;;;0.50;0.50;;;;;10.20;94950.00;;;;5071396;28;20194;-62
2023/12/11 09:47:47;;;;;;;6.13;0.93;;;;;10.20;94947.00;;;;5071820;28;20202;-62
2023/12/11 09:50:15;;;;;;;0.50;0.50;;;;;10.10;94936.00;;;;5071308;28;20234;-62
2023/12/11 09:52:44;;;;;;;0.50;0.50;;;;;10.30;94936.00;;;;5072041;28;20226;-62
2023/12/11 09:55:12;;;;;;;0.50;0.50;;;;;10.40;94948.00;;;;5069951;28;20714;-62
2023/12/11 09:57:42;;;;;;;0.67;0.67;;;;;10.60;94950.00;;;;5071985;28;20195;-61
2023/12/11 10:00:11;;;;;;;0.70;0.70;;;;;10.50;94951.00;;;;5071968;28;20211;-61
2023/12/11 10:02:40;;;;;;;0.67;0.67;;;;;10.60;94949.00;;;;5071294;28;20234;-61
2023/12/11 10:05:09;;;;;;;0.60;0.60;;;;;10.60;94951.00;;;;5071073;28;20199;-61
2023/12/11 10:07:38;;;;;;;0.60;0.60;;;;;10.90;94950.00;;;;5071488;28;20758;-61
2023/12/11 10:10:25;;;;;;;0.60;0.60;;;;;11.20;94957.00;;;;5070928;28;20274;-61
2023/12/11 10:12:54;;;;;;;0.50;0.50;;;;;11.20;94945.00;;;;5071241;28;20215;-61
2023/12/11 10:15:23;;;;;;;0.50;0.50;;;;;11.20;94949.00;;;;5070966;28;20195;-62
2023/12/11 10:18:02;;;;;;;1.13;0.70;;;;;11.00;94955.00;;;;5069731;28;20208;-62
2023/12/11 10:20:31;;;;;;;0.50;0.50;;;;;11.10;94956.00;;;;5071032;28;20215;-61
2023/12/11 10:22:58;;;;;;;0.50;0.50;;;;;11.20;94952.00;;;;5071014;28;20643;-61
2023/12/11 10:25:30;;;;;;;0.60;0.60;;;;;11.30;94945.00;;;;5071019;28;20188;-61
2023/12/11 10:28:08;;;;;;;0.50;0.50;;;;;11.50;94912.00;;;;5070384;28;20222;-61
2023/12/11 10:30:49;;;;;;;1.47;1.07;;;;;11.70;94913.00;;;;5067243;28;20183;-62
2023/12/11 10:33:17;;;;;;;0.60;0.60;;;;;11.30;94915.00;;;;5070941;28;20310;-62
2023/12/11 10:35:47;;;;;;;0.80;0.80;;;;;11.00;94927.00;;;;5071043;28;20245;-62
2023/12/11 10:38:22;;;;;;;0.50;0.50;;;;;10.90;94938.00;;;;5071157;28;20200;-62
2023/12/11 10:40:50;;;;;;;0.60;0.60;;;;;10.80;94958.00;;;;5070781;28;20203;-61
2023/12/11 10:43:19;;;;;;;0.53;0.53;;;;;10.80;94957.00;;;;5070799;28;20299;-61
2023/12/11 10:45:47;;;;;;;0.63;0.63;;;;;10.90;94937.00;;;;5071167;28;20682;-62
2023/12/11 10:48:15;;;;;;;9.90;0.97;;;;;11.10;94937.00;;;;5071332;28;20214;-62
2023/12/11 10:50:43;;;;;;;0.50;0.50;;;;;11.50;94947.00;;;;5071093;28;20192;-61
2023/12/11 10:53:10;;;;;;;0.60;0.60;;;;;11.70;94917.00;;;;5068097;28;20211;-61
2023/12/11 10:55:38;;;;;;;0.50;0.50;;;;;11.80;94921.00;;;;5066836;28;20206;-63
2023/12/11 10:58:08;;;;;;;0.60;0.60;;;;;12.20;94937.00;;;;5070537;28;20203;-62
2023/12/11 11:00:40;;;;;;;0.60;0.60;;;;;11.90;94951.00;;;;5070587;28;20211;-62
2023/12/11 11:03:10;;;;;;;0.60;0.60;;;;;11.80;94936.00;;;;5070648;28;20242;-62
2023/12/11 11:05:38;;;;;;;0.50;0.50;;;;;11.90;94936.00;;;;5070430;28;20196;-62
2023/12/11 11:08:17;;;;;;;0.77;0.77;;;;;11.60;94935.00;;;;5070821;28;20183;-62
2023/12/11 11:10:52;;;;;;;0.90;0.90;;;;;11.10;94949.00;;;;5070749;28;20191;-62
2023/12/11 11:13:22;;;;;;;0.70;0.70;;;;;11.20;94934.00;;;;5070102;28;20219;-62
2023/12/11 11:15:55;;;;;;;0.60;0.60;;;;;11.80;94884.00;;;;5071011;28;20196;-62
2023/12/11 11:18:23;;;;;;;0.70;0.70;;;;;13.40;94936.00;;;;5066099;28;20200;-62
2023/12/11 11:21:09;;;;;;;0.70;0.70;;;;;13.10;94932.00;;;;5065720;28;20315;-62
2023/12/11 11:23:42;;;;;;;0.93;0.93;;;;;12.70;94908.00;;;;5067449;28;20242;-62
2023/12/11 11:26:33;;;;;;;1.70;1.00;;;;;13.40;94887.00;;;;5070653;28;20215;-62
2023/12/11 11:29:00;;;;;;;0.80;0.80;;;;;15.30;94926.00;;;;5071580;28;20187;-62
2023/12/11 11:31:52;;;;;;;0.53;0.53;;;;;14.00;94941.00;;;;5074330;28;20261;-63
2023/12/11 11:34:43;;;;;;;0.47;0.47;;;;;15.90;94937.00;;;;5073623;28;20196;-63
2023/12/11 11:37:13;;;;;;;0.60;0.60;;;;;17.10;94921.00;;;;5071353;28;20215;-62
2023/12/11 11:39:57;;;;;;;0.43;0.43;;;;;15.40;94970.00;;;;5074505;28;20279;-63
2023/12/11 11:42:25;;;;;;;4.87;0.70;;;;;13.00;94981.00;;;;5072863;28;20613;-63
2023/12/11 11:44:57;;;;;;;1.30;0.60;;;;;12.50;94975.00;;;;5074208;28;20195;-62
2023/12/11 11:47:26;;;;;;;0.53;0.53;;;;;11.80;94977.00;;;;5070577;28;20262;-63
2023/12/11 11:49:54;;;;;;;1.20;1.03;;;;;12.00;94982.00;;;;5073770;28;20199;-63
2023/12/11 11:52:26;;;;;;;1.33;1.23;;;;;11.90;94987.00;;;;5074057;28;20695;-64
2023/12/11 11:54:57;;;;;;;0.60;0.60;;;;;12.00;94997.00;;;;5072628;28;20183;-62
2023/12/11 11:57:28;;;;;;;0.77;0.77;;;;;14.20;94984.00;;;;5073651;28;20270;-62
2023/12/11 11:59:56;;;;;;;0.93;0.93;;;;;14.90;94973.00;;;;5074638;28;20195;-63
2023/12/11 12:02:26;;;;;;;0.53;0.53;;;;;17.20;94904.00;;;;5071536;28;20223;-62
2023/12/11 12:04:53;;;;;;;1.73;1.07;;;;;16.50;94921.00;;;;5073708;28;20650;-62
2023/12/11 12:07:21;;;;;;;0.30;0.30;;;18.00;32.80;18.10;94936.00;;;;5073051;28;20207;-62
2023/12/11 12:09:52;;;;;;;0.50;0.50;;;;;20.00;94966.00;;;;5073758;28;20275;-62
2023/12/11 12:12:20;;;;;;;0.40;0.40;;;;;17.20;94975.00;;;;5072221;28;20261;-62
2023/12/11 12:14:59;;;;;;;1.13;0.90;;;;;16.10;94987.00;;;;5073541;28;20199;-62
2023/12/11 12:17:28;;;;;;;0.63;0.63;;;;;14.50;94996.00;;;;5073289;28;20210;-62
2023/12/11 12:19:55;;;;;;;1.07;0.90;;;;;13.80;94991.00;;;;5072116;28;20223;-62
2023/12/11 12:22:24;;;;;;;0.50;0.50;;;;;13.30;94990.00;;;;5072740;28;20655;-61
2023/12/11 12:24:52;;;;;;;0.60;0.60;;;;;12.90;95006.00;;;;5073207;28;20249;-62
2023/12/11 12:27:23;;;;;;;2.53;0.80;;;;;12.40;94995.00;;;;5072490;28;20199;-63
2023/12/11 12:29:52;;;;;;;0.57;0.57;;;;;12.30;94994.00;;;;5073089;28;20191;-62
2023/12/11 12:32:19;;;;;;;0.60;0.60;;;;;12.50;94988.00;;;;5073031;28;20716;-62